createdAt,value
2022-08-31T00:00:55.651Z,0.60
2022-08-31T00:03:43.518Z,0.40
2022-08-31T00:06:11.204Z,0.40
2022-08-31T00:08:38.923Z,0.50
2022-08-31T00:11:09.874Z,0.40
2022-08-31T00:13:38.261Z,0.37
2022-08-31T00:16:08.870Z,0.40
2022-08-31T00:18:37.206Z,0.50
2022-08-31T00:21:06.223Z,0.43
2022-08-31T00:23:33.908Z,0.63
2022-08-31T00:26:01.602Z,0.40
2022-08-31T00:28:29.327Z,0.50
2022-08-31T00:30:57.188Z,0.40
2022-08-31T00:33:26.218Z,0.40
2022-08-31T00:35:53.919Z,0.50
2022-08-31T00:38:22.802Z,0.40
2022-08-31T00:40:52.297Z,0.60
2022-08-31T00:43:41.936Z,0.43
2022-08-31T00:46:12.092Z,0.47
2022-08-31T00:48:45.581Z,0.53
2022-08-31T00:51:18.571Z,0.40
2022-08-31T00:53:50.709Z,0.40
2022-08-31T00:56:19.873Z,0.60
2022-08-31T00:58:54.547Z,0.50
2022-08-31T01:01:23.812Z,0.50
2022-08-31T01:03:53.193Z,0.37
2022-08-31T01:06:21.597Z,0.40
2022-08-31T01:08:51.081Z,0.50
2022-08-31T01:11:21.132Z,0.50
2022-08-31T01:13:54.169Z,0.60
2022-08-31T01:16:27.273Z,0.50
2022-08-31T01:18:59.727Z,0.50
2022-08-31T01:21:32.892Z,0.27
2022-08-31T01:24:03.318Z,0.33
2022-08-31T01:26:34.072Z,0.40
2022-08-31T01:29:05.602Z,0.50
2022-08-31T01:31:35.765Z,0.57
2022-08-31T01:34:04.976Z,0.30
2022-08-31T01:36:35.038Z,0.60
2022-08-31T01:39:04.864Z,0.50
2022-08-31T01:41:32.563Z,0.40
2022-08-31T01:44:01.531Z,0.30
2022-08-31T01:46:29.972Z,0.47
2022-08-31T01:48:57.687Z,0.50
2022-08-31T01:51:25.337Z,0.50
2022-08-31T01:53:54.246Z,0.47
2022-08-31T01:56:26.071Z,0.40
2022-08-31T01:58:55.190Z,0.57
2022-08-31T02:01:47.511Z,0.40
2022-08-31T02:04:19.663Z,0.60
2022-08-31T02:06:49.879Z,0.50
2022-08-31T02:09:19.922Z,0.30
2022-08-31T02:11:49.359Z,0.40
2022-08-31T02:14:18.967Z,0.33
2022-08-31T02:16:47.334Z,0.47
2022-08-31T02:19:14.978Z,0.40
2022-08-31T02:21:42.834Z,0.50
2022-08-31T02:24:12.358Z,0.30
2022-08-31T02:26:41.014Z,0.30
2022-08-31T02:29:10.009Z,0.40
2022-08-31T02:31:38.143Z,0.40
2022-08-31T02:34:06.230Z,0.30
2022-08-31T02:36:34.821Z,0.40
2022-08-31T02:39:06.014Z,0.30
2022-08-31T02:41:34.918Z,0.30
2022-08-31T02:44:03.045Z,0.50
2022-08-31T02:46:32.365Z,0.20
2022-08-31T02:49:35.676Z,0.43
2022-08-31T02:52:04.003Z,0.30
2022-08-31T02:54:31.653Z,0.30
2022-08-31T02:57:02.745Z,0.40
2022-08-31T02:59:30.445Z,0.40
2022-08-31T03:02:00.433Z,0.40
2022-08-31T03:04:28.315Z,0.50
2022-08-31T03:06:56.050Z,0.47
2022-08-31T03:09:24.297Z,0.40
2022-08-31T03:11:51.943Z,0.30
2022-08-31T03:14:19.610Z,0.50
2022-08-31T03:16:47.475Z,0.43
2022-08-31T03:19:22.262Z,0.50
2022-08-31T03:21:56.131Z,0.50
2022-08-31T03:24:27.500Z,0.40
2022-08-31T03:26:55.899Z,0.40
2022-08-31T03:29:23.527Z,0.50
2022-08-31T03:31:56.842Z,0.60
2022-08-31T03:34:27.689Z,0.50
2022-08-31T03:36:55.781Z,0.50
2022-08-31T03:39:23.546Z,0.40
2022-08-31T03:41:51.286Z,0.47
2022-08-31T03:44:23.855Z,0.50
2022-08-31T03:46:56.419Z,0.60
2022-08-31T03:49:24.762Z,0.70
2022-08-31T03:52:16.427Z,0.60
2022-08-31T03:54:48.013Z,0.47
2022-08-31T03:57:15.948Z,0.40
2022-08-31T03:59:43.967Z,0.40
2022-08-31T04:02:20.838Z,0.50
2022-08-31T04:05:21.379Z,0.70
2022-08-31T04:08:08.854Z,0.40
2022-08-31T04:11:08.697Z,0.50
2022-08-31T04:13:42.682Z,0.53
2022-08-31T04:16:18.822Z,0.63
2022-08-31T04:18:55.367Z,0.50
2022-08-31T04:21:26.353Z,0.60
2022-08-31T04:23:56.045Z,0.60
2022-08-31T04:26:26.838Z,0.60
2022-08-31T04:28:54.643Z,0.73
2022-08-31T04:31:23.701Z,0.60
2022-08-31T04:33:52.311Z,0.60
2022-08-31T04:36:21.942Z,0.70
2022-08-31T04:38:56.284Z,0.70
2022-08-31T04:41:26.908Z,0.50
2022-08-31T04:43:56.343Z,0.53
2022-08-31T04:46:25.925Z,0.43
2022-08-31T04:48:55.575Z,0.50
2022-08-31T04:51:31.096Z,0.57
2022-08-31T04:54:00.101Z,0.50
2022-08-31T04:56:29.862Z,0.43
2022-08-31T04:59:00.387Z,0.40
2022-08-31T05:01:42.397Z,0.50
2022-08-31T05:04:38.853Z,0.70
2022-08-31T05:07:06.878Z,0.50
2022-08-31T05:09:36.678Z,0.50
2022-08-31T05:12:04.945Z,0.57
2022-08-31T05:14:32.656Z,0.50
2022-08-31T05:17:06.300Z,0.70
2022-08-31T05:19:41.513Z,0.30
2022-08-31T05:22:09.240Z,0.63
2022-08-31T05:24:41.077Z,0.40
2022-08-31T05:27:09.803Z,0.20
2022-08-31T05:29:37.761Z,0.40
2022-08-31T05:32:31.109Z,0.40
2022-08-31T05:35:00.477Z,0.40
2022-08-31T05:37:28.224Z,0.60
2022-08-31T05:39:57.289Z,0.50
2022-08-31T05:42:25.363Z,0.40
2022-08-31T05:44:53.077Z,0.50
2022-08-31T05:47:20.801Z,0.73
2022-08-31T05:49:48.517Z,0.63
2022-08-31T05:52:19.875Z,0.30
2022-08-31T05:54:52.961Z,0.40
2022-08-31T05:57:26.381Z,0.60
2022-08-31T05:59:55.804Z,0.47
2022-08-31T06:02:27.522Z,0.40
2022-08-31T06:04:58.218Z,0.50
2022-08-31T06:07:26.522Z,0.40
2022-08-31T06:09:58.305Z,0.63
2022-08-31T06:12:27.604Z,0.53
2022-08-31T06:14:56.342Z,0.50
2022-08-31T06:17:24.264Z,0.50
2022-08-31T06:19:52.154Z,0.37
2022-08-31T06:22:20.408Z,0.70
2022-08-31T06:24:49.501Z,0.40
2022-08-31T06:27:17.537Z,0.47
2022-08-31T06:29:47.078Z,0.60
2022-08-31T06:32:15.753Z,0.50
2022-08-31T06:34:54.720Z,0.50
2022-08-31T06:37:58.004Z,0.77
2022-08-31T06:40:48.458Z,0.60
2022-08-31T06:43:32.994Z,0.43
2022-08-31T06:46:07.400Z,0.50
2022-08-31T06:49:05.432Z,0.63
2022-08-31T06:51:38.164Z,0.63
2022-08-31T06:54:27.863Z,0.70
2022-08-31T06:57:31.314Z,0.70
2022-08-31T07:00:02.252Z,0.60
2022-08-31T07:03:22.862Z,0.70
2022-08-31T07:05:53.006Z,0.60
2022-08-31T07:08:21.485Z,0.50
2022-08-31T07:10:49.826Z,0.80
2022-08-31T07:13:17.624Z,0.50
2022-08-31T07:15:45.367Z,0.67
2022-08-31T07:18:14.666Z,0.73
2022-08-31T07:20:42.322Z,0.50
2022-08-31T07:23:12.670Z,0.53
2022-08-31T07:25:47.197Z,0.43
2022-08-31T07:28:14.905Z,0.40
2022-08-31T07:30:43.009Z,0.50
2022-08-31T07:33:16.817Z,0.50
2022-08-31T07:35:50.064Z,0.40
2022-08-31T07:38:53.225Z,0.60
2022-08-31T07:41:50.735Z,0.63
2022-08-31T07:44:20.109Z,0.60
2022-08-31T07:46:49.202Z,0.60
2022-08-31T07:49:19.476Z,0.60
2022-08-31T07:52:13.177Z,0.63
2022-08-31T07:55:04.902Z,0.80
2022-08-31T07:57:49.017Z,0.70
2022-08-31T08:00:21.338Z,0.70
2022-08-31T08:02:53.063Z,0.60
2022-08-31T08:05:28.926Z,0.43
2022-08-31T08:08:22.838Z,0.80
2022-08-31T08:11:21.051Z,0.63
2022-08-31T08:14:08.671Z,0.70
2022-08-31T08:16:53.320Z,0.80
2022-08-31T08:19:38.378Z,0.60
2022-08-31T08:22:07.819Z,0.60
2022-08-31T08:25:06.913Z,0.60
2022-08-31T08:27:45.303Z,0.70
2022-08-31T08:30:31.699Z,0.60
2022-08-31T08:33:01.301Z,0.60
2022-08-31T08:35:32.681Z,0.70
2022-08-31T08:38:07.606Z,0.50
2022-08-31T08:40:42.511Z,0.63
2022-08-31T08:43:15.921Z,0.70
2022-08-31T08:45:46.517Z,0.60
2022-08-31T08:48:17.228Z,0.70
2022-08-31T08:50:45.317Z,0.57
2022-08-31T08:53:29.107Z,0.87
2022-08-31T08:56:32.752Z,0.67
2022-08-31T08:59:02.224Z,0.50
2022-08-31T09:01:37.427Z,0.83
2022-08-31T09:04:13.593Z,0.60
2022-08-31T09:07:21.075Z,0.60
2022-08-31T09:09:58.352Z,0.60
2022-08-31T09:12:36.088Z,0.70
2022-08-31T09:15:17.934Z,0.77
2022-08-31T09:17:59.848Z,0.70
2022-08-31T09:20:28.418Z,0.80
2022-08-31T09:22:58.618Z,0.70
2022-08-31T09:25:33.218Z,0.80
2022-08-31T09:28:02.203Z,0.63
2022-08-31T09:30:39.726Z,0.70
2022-08-31T09:33:08.148Z,0.70
2022-08-31T09:35:41.364Z,1.10
2022-08-31T09:38:11.164Z,0.97
2022-08-31T09:40:43.203Z,1.00
2022-08-31T09:43:18.163Z,0.90
2022-08-31T09:45:56.358Z,1.23
2022-08-31T09:48:51.378Z,0.60
2022-08-31T09:51:25.498Z,0.70
2022-08-31T09:54:11.581Z,0.77
2022-08-31T09:56:55.490Z,0.67
2022-08-31T09:59:37.573Z,0.47
2022-08-31T10:02:09.137Z,0.50
2022-08-31T10:04:51.094Z,0.57
2022-08-31T10:07:41.954Z,0.80
2022-08-31T10:10:28.049Z,0.70
2022-08-31T10:13:05.244Z,0.60
2022-08-31T10:15:42.169Z,0.60
2022-08-31T10:18:16.938Z,0.73
2022-08-31T10:20:51.727Z,0.70
2022-08-31T10:23:28.466Z,0.50
2022-08-31T10:26:02.270Z,0.60
2022-08-31T10:28:36.575Z,0.40
2022-08-31T10:31:13.584Z,0.70
2022-08-31T10:34:05.014Z,0.60
2022-08-31T10:36:38.752Z,0.70
2022-08-31T10:39:29.700Z,0.70
2022-08-31T10:41:58.842Z,0.40
2022-08-31T10:44:36.404Z,0.63
2022-08-31T10:47:05.718Z,0.70
2022-08-31T10:49:35.428Z,0.70
2022-08-31T10:52:14.120Z,0.60
2022-08-31T10:54:48.862Z,0.70
2022-08-31T10:57:32.046Z,0.50
2022-08-31T11:00:08.459Z,0.60
2022-08-31T11:02:48.565Z,0.50
2022-08-31T11:05:32.602Z,0.50
2022-08-31T11:08:18.440Z,0.57
2022-08-31T11:10:51.826Z,0.50
2022-08-31T11:13:39.318Z,0.45
2022-08-31T11:16:22.322Z,0.60
2022-08-31T11:19:17.221Z,0.60
2022-08-31T11:22:02.859Z,0.63
2022-08-31T11:25:04.019Z,0.63
2022-08-31T11:27:36.981Z,0.90
2022-08-31T11:30:07.937Z,0.70
2022-08-31T11:32:40.741Z,0.60
2022-08-31T11:35:10.761Z,0.40
2022-08-31T11:37:57.143Z,0.50
2022-08-31T11:41:03.074Z,0.52
2022-08-31T11:43:52.046Z,0.40
2022-08-31T11:47:02.274Z,0.43
2022-08-31T11:49:51.720Z,0.60
2022-08-31T11:52:48.417Z,0.40
2022-08-31T11:55:23.042Z,0.50
2022-08-31T11:58:22.511Z,0.57
2022-08-31T12:00:59.167Z,0.32
2022-08-31T12:03:51.615Z,0.40
2022-08-31T12:07:00.827Z,0.30
2022-08-31T12:09:52.117Z,0.65
2022-08-31T12:12:31.255Z,0.73
2022-08-31T12:15:09.267Z,0.68
2022-08-31T12:17:51.205Z,0.65
2022-08-31T12:20:26.423Z,0.60
2022-08-31T12:23:31.479Z,0.80
2022-08-31T12:26:31.163Z,0.52
2022-08-31T12:29:21.590Z,0.55
2022-08-31T12:32:10.886Z,0.68
2022-08-31T12:34:42.029Z,0.95
2022-08-31T12:37:22.218Z,0.85
2022-08-31T12:40:12.465Z,0.77
2022-08-31T12:42:48.776Z,0.80
2022-08-31T12:45:17.994Z,0.82
2022-08-31T12:47:56.859Z,0.50
2022-08-31T12:50:34.030Z,0.50
2022-08-31T12:53:40.121Z,0.45
2022-08-31T12:56:14.857Z,0.95
2022-08-31T12:59:00.693Z,0.98
2022-08-31T13:01:29.272Z,0.68
2022-08-31T13:04:01.660Z,0.57
2022-08-31T13:06:31.836Z,0.60
2022-08-31T13:09:00.959Z,0.55
2022-08-31T13:11:41.209Z,0.65
2022-08-31T13:14:14.849Z,0.70
2022-08-31T13:16:45.065Z,0.63
2022-08-31T13:19:25.787Z,0.65
2022-08-31T13:21:57.303Z,0.75
2022-08-31T13:24:30.969Z,0.60
2022-08-31T13:27:17.089Z,0.90
2022-08-31T13:29:47.468Z,0.65
2022-08-31T13:32:30.738Z,0.73
2022-08-31T13:34:58.772Z,0.60
2022-08-31T13:37:35.137Z,0.52
2022-08-31T13:40:09.280Z,0.60
2022-08-31T13:42:41.349Z,0.50
2022-08-31T13:45:26.300Z,0.50
2022-08-31T13:47:59.533Z,0.60
2022-08-31T13:50:33.334Z,0.60
2022-08-31T13:53:25.960Z,0.70
2022-08-31T13:55:51.275Z,0.50
2022-08-31T13:58:27.668Z,0.50
2022-08-31T14:01:21.054Z,0.60
2022-08-31T14:03:57.273Z,0.40
2022-08-31T14:06:27.488Z,0.40
2022-08-31T14:09:03.232Z,0.40
2022-08-31T14:11:33.744Z,0.60
2022-08-31T14:14:08.283Z,0.47
2022-08-31T14:16:43.625Z,0.60
2022-08-31T14:19:14.182Z,0.52
2022-08-31T14:21:43.553Z,0.50
2022-08-31T14:24:13.120Z,0.43
2022-08-31T14:26:43.048Z,0.45
2022-08-31T14:29:13.253Z,0.70
2022-08-31T14:31:46.892Z,0.50
2022-08-31T14:34:23.086Z,0.50
2022-08-31T14:36:54.210Z,0.80
2022-08-31T14:39:24.417Z,0.52
2022-08-31T14:41:54.629Z,0.55
2022-08-31T14:44:26.412Z,0.50
2022-08-31T14:46:55.427Z,0.40
2022-08-31T14:49:23.504Z,0.40
2022-08-31T14:51:51.223Z,0.50
2022-08-31T14:54:18.975Z,0.43
2022-08-31T14:56:50.227Z,0.57
2022-08-31T14:59:21.755Z,0.60
2022-08-31T15:01:50.593Z,0.52
2022-08-31T15:04:21.981Z,0.50
2022-08-31T15:06:54.857Z,0.40
2022-08-31T15:09:22.868Z,0.22
2022-08-31T15:11:50.952Z,0.35
2022-08-31T15:14:18.670Z,0.45
2022-08-31T15:16:48.408Z,0.30
2022-08-31T15:19:16.563Z,0.50
2022-08-31T15:21:52.831Z,0.50
2022-08-31T15:24:31.041Z,0.47
2022-08-31T15:26:59.617Z,0.38
2022-08-31T15:29:30.373Z,0.40
2022-08-31T15:31:59.807Z,0.30
2022-08-31T15:34:31.239Z,0.30
2022-08-31T15:37:02.959Z,0.40
2022-08-31T15:39:32.962Z,0.40
2022-08-31T15:42:02.837Z,0.52
2022-08-31T15:44:30.604Z,0.30
2022-08-31T15:47:16.138Z,0.50
2022-08-31T15:49:44.522Z,0.60
2022-08-31T15:52:13.710Z,0.50
2022-08-31T15:54:42.187Z,0.50
2022-08-31T15:57:11.379Z,0.40
2022-08-31T15:59:43.051Z,0.35
2022-08-31T16:02:13.307Z,0.40
2022-08-31T16:04:42.972Z,0.45
2022-08-31T16:07:14.237Z,0.60
2022-08-31T16:09:44.758Z,0.50
2022-08-31T16:12:13.799Z,0.40
2022-08-31T16:14:44.692Z,0.30
2022-08-31T16:17:19.380Z,0.40
2022-08-31T16:19:47.282Z,0.17
2022-08-31T16:22:16.992Z,0.30
2022-08-31T16:24:46.994Z,0.50
2022-08-31T16:27:17.020Z,0.50
2022-08-31T16:29:45.810Z,0.43
2022-08-31T16:32:14.280Z,0.50
2022-08-31T16:34:42.776Z,0.35
2022-08-31T16:37:10.728Z,0.45
2022-08-31T16:39:47.047Z,0.70
2022-08-31T16:42:15.893Z,0.63
2022-08-31T16:44:46.310Z,0.38
2022-08-31T16:47:16.297Z,0.52
2022-08-31T16:49:43.792Z,0.50
2022-08-31T16:52:14.809Z,0.50
2022-08-31T16:54:48.038Z,0.60
2022-08-31T16:57:19.076Z,0.60
2022-08-31T16:59:46.926Z,0.43
2022-08-31T17:02:16.658Z,0.50
2022-08-31T17:04:53.973Z,0.28
2022-08-31T17:07:26.349Z,0.50
2022-08-31T17:10:07.160Z,0.40
2022-08-31T17:12:37.615Z,0.40
2022-08-31T17:15:06.445Z,0.30
2022-08-31T17:17:34.254Z,0.30
2022-08-31T17:20:02.085Z,0.50
2022-08-31T17:22:33.752Z,0.40
2022-08-31T17:25:04.748Z,0.30
2022-08-31T17:27:34.303Z,0.40
2022-08-31T17:30:05.910Z,0.50
2022-08-31T17:32:36.735Z,0.63
2022-08-31T17:35:18.299Z,0.40
2022-08-31T17:37:46.757Z,0.50
2022-08-31T17:40:16.859Z,0.40
2022-08-31T17:42:44.802Z,0.30
2022-08-31T17:45:13.068Z,0.40
2022-08-31T17:47:41.429Z,0.40
2022-08-31T17:50:10.236Z,0.40
2022-08-31T17:52:38.006Z,0.30
2022-08-31T17:55:07.517Z,0.30
2022-08-31T17:57:36.592Z,0.30
2022-08-31T18:00:06.228Z,0.30
2022-08-31T18:02:37.825Z,0.40
2022-08-31T18:05:09.469Z,0.37
2022-08-31T18:07:40.881Z,0.33
2022-08-31T18:10:09.943Z,0.30
2022-08-31T18:12:41.308Z,0.30
2022-08-31T18:15:10.441Z,0.30
2022-08-31T18:17:38.278Z,0.27
2022-08-31T18:20:06.960Z,0.33
2022-08-31T18:22:34.759Z,0.30
2022-08-31T18:25:02.908Z,0.20
2022-08-31T18:27:30.776Z,0.37
2022-08-31T18:30:00.851Z,0.43
2022-08-31T18:32:29.359Z,0.40
2022-08-31T18:34:57.513Z,0.30
2022-08-31T18:37:26.047Z,0.30
2022-08-31T18:40:12.110Z,0.33
2022-08-31T18:42:57.620Z,0.20
2022-08-31T18:45:28.163Z,0.30
2022-08-31T18:50:46.877Z,0.60
2022-08-31T18:53:29.557Z,0.50
2022-08-31T18:55:59.637Z,0.37
2022-08-31T18:58:27.667Z,0.47
2022-08-31T19:00:59.246Z,0.47
2022-08-31T19:03:28.647Z,0.50
2022-08-31T19:05:56.885Z,0.30
2022-08-31T19:08:26.136Z,0.40
2022-08-31T19:10:56.577Z,0.33
2022-08-31T19:13:24.737Z,0.40
2022-08-31T19:15:52.771Z,0.40
2022-08-31T19:18:22.093Z,0.43
2022-08-31T19:20:49.878Z,0.30
2022-08-31T19:23:20.201Z,0.47
2022-08-31T19:25:48.822Z,0.40
2022-08-31T19:28:16.978Z,0.57
2022-08-31T19:30:47.697Z,0.40
2022-08-31T19:33:16.630Z,0.60
2022-08-31T19:35:46.114Z,0.60
2022-08-31T19:38:14.559Z,0.60
2022-08-31T19:40:42.782Z,0.40
2022-08-31T19:46:16.035Z,0.40
2022-08-31T19:48:45.376Z,0.33
2022-08-31T19:51:17.583Z,0.50
2022-08-31T19:53:46.464Z,0.40
2022-08-31T19:56:17.718Z,0.53
2022-08-31T19:58:48.557Z,0.53
2022-08-31T20:01:18.190Z,0.20
2022-08-31T20:03:48.220Z,0.33
2022-08-31T20:06:20.379Z,0.27
2022-08-31T20:08:49.799Z,0.30
2022-08-31T20:11:21.958Z,0.40
2022-08-31T20:13:50.553Z,0.40
2022-08-31T20:16:19.384Z,0.50
2022-08-31T20:18:48.769Z,0.50
2022-08-31T20:21:19.868Z,0.33
2022-08-31T20:23:49.557Z,0.33
2022-08-31T20:26:20.035Z,0.30
2022-08-31T20:28:49.578Z,0.40
2022-08-31T20:31:18.863Z,0.40
2022-08-31T20:33:47.034Z,0.33
2022-08-31T20:36:18.946Z,0.40
2022-08-31T20:38:49.581Z,0.30
2022-08-31T20:41:17.441Z,0.40
2022-08-31T20:43:45.630Z,0.20
2022-08-31T20:46:34.385Z,0.40
2022-08-31T20:49:20.321Z,0.33
2022-08-31T20:51:48.368Z,0.40
2022-08-31T20:54:18.311Z,0.40
2022-08-31T20:56:46.730Z,0.40
2022-08-31T20:59:14.350Z,0.50
2022-08-31T21:01:42.012Z,0.53
2022-08-31T21:04:10.416Z,0.53
2022-08-31T21:06:39.146Z,0.30
2022-08-31T21:09:08.179Z,0.30
2022-08-31T21:11:40.656Z,0.30
2022-08-31T21:14:08.663Z,0.20
2022-08-31T21:16:36.360Z,0.30
2022-08-31T21:19:06.817Z,0.30
2022-08-31T21:21:34.577Z,0.33
2022-08-31T21:24:02.228Z,0.30
2022-08-31T21:26:29.841Z,0.37
2022-08-31T21:28:59.792Z,0.30
2022-08-31T21:31:29.186Z,0.30
2022-08-31T21:33:59.971Z,0.23
2022-08-31T21:36:28.508Z,0.33
2022-08-31T21:38:58.178Z,0.20
2022-08-31T21:41:29.485Z,0.40
2022-08-31T21:43:59.254Z,0.20
2022-08-31T21:46:29.622Z,0.30
2022-08-31T21:48:59.299Z,0.23
2022-08-31T21:51:29.096Z,0.33
2022-08-31T21:53:59.632Z,0.70
2022-08-31T21:56:29.484Z,0.23
2022-08-31T21:58:57.994Z,0.30
2022-08-31T22:01:29.572Z,0.40
2022-08-31T22:03:59.436Z,0.50
2022-08-31T22:06:31.100Z,0.30
2022-08-31T22:09:01.042Z,0.23
2022-08-31T22:11:31.660Z,0.40
2022-08-31T22:14:00.541Z,0.30
2022-08-31T22:16:29.546Z,0.43
2022-08-31T22:19:01.750Z,0.30
2022-08-31T22:21:34.483Z,0.40
2022-08-31T22:24:05.798Z,0.33
2022-08-31T22:26:37.696Z,0.40
2022-08-31T22:29:06.305Z,0.30
2022-08-31T22:31:37.230Z,0.30
2022-08-31T22:34:05.744Z,0.43
2022-08-31T22:36:34.521Z,0.30
2022-08-31T22:39:03.722Z,0.40
2022-08-31T22:41:32.734Z,0.30
2022-08-31T22:44:01.242Z,0.30
2022-08-31T22:46:29.245Z,0.50
2022-08-31T22:48:58.704Z,0.30
2022-08-31T22:51:27.436Z,0.33
2022-08-31T22:53:55.336Z,0.53
2022-08-31T22:56:26.124Z,0.40
2022-08-31T22:58:55.077Z,0.33
2022-08-31T23:01:25.601Z,0.17
2022-08-31T23:03:55.135Z,0.40
2022-08-31T23:06:26.670Z,0.40
2022-08-31T23:08:57.086Z,0.30
2022-08-31T23:11:26.062Z,0.30
2022-08-31T23:13:56.508Z,0.40
2022-08-31T23:16:27.078Z,0.50
2022-08-31T23:18:57.625Z,0.30
2022-08-31T23:21:27.787Z,0.27
2022-08-31T23:23:56.111Z,0.43
2022-08-31T23:26:24.866Z,0.37
2022-08-31T23:28:53.523Z,0.40
2022-08-31T23:31:21.957Z,0.50
2022-08-31T23:33:53.173Z,0.30
2022-08-31T23:36:25.892Z,0.40
2022-08-31T23:38:55.790Z,0.40
2022-08-31T23:41:26.102Z,0.50
2022-08-31T23:43:54.566Z,0.20
2022-08-31T23:46:25.005Z,0.30
2022-08-31T23:48:53.446Z,0.30
2022-08-31T23:51:22.385Z,0.30
2022-08-31T23:53:53.974Z,0.37
2022-08-31T23:56:31.798Z,0.30
2022-08-31T23:59:01.062Z,0.30
